createdAt,value
2023-03-03T00:00:03.872Z,1.02
2023-03-03T00:02:30.353Z,1.10
2023-03-03T00:04:56.761Z,1.38
2023-03-03T00:07:23.383Z,1.10
2023-03-03T00:09:50.051Z,1.17
2023-03-03T00:12:27.015Z,1.50
2023-03-03T00:14:53.545Z,1.42
2023-03-03T00:17:26.765Z,1.23
2023-03-03T00:19:54.814Z,1.13
2023-03-03T00:22:31.830Z,1.02
2023-03-03T00:25:21.110Z,1.20
2023-03-03T00:27:47.533Z,1.60
2023-03-03T00:30:23.168Z,1.35
2023-03-03T00:32:50.790Z,1.50
2023-03-03T00:35:23.271Z,1.25
2023-03-03T00:37:52.160Z,1.58
2023-03-03T00:40:18.595Z,0.98
2023-03-03T00:42:47.480Z,1.50
2023-03-03T00:45:22.368Z,1.63
2023-03-03T00:47:48.785Z,1.58
2023-03-03T00:50:25.118Z,1.42
2023-03-03T00:52:57.966Z,1.50
2023-03-03T00:55:24.495Z,1.30
2023-03-03T00:57:50.892Z,1.58
2023-03-03T01:00:17.629Z,1.67
2023-03-03T01:02:46.262Z,1.73
2023-03-03T01:05:17.292Z,1.20
2023-03-03T01:07:43.654Z,1.45
2023-03-03T01:10:10.626Z,1.10
2023-03-03T01:12:38.743Z,1.40
2023-03-03T01:15:09.322Z,1.67
2023-03-03T01:17:36.038Z,1.58
2023-03-03T01:20:03.969Z,1.00
2023-03-03T01:22:30.379Z,1.13
2023-03-03T01:24:58.001Z,1.23
2023-03-03T01:27:25.752Z,1.50
2023-03-03T01:29:52.252Z,1.17
2023-03-03T01:32:18.776Z,1.30
2023-03-03T01:34:45.317Z,1.25
2023-03-03T01:37:11.725Z,1.63
2023-03-03T01:39:38.130Z,2.40
2023-03-03T01:42:04.912Z,3.17
2023-03-03T01:44:31.405Z,2.67
2023-03-03T01:47:05.684Z,3.75
2023-03-03T01:49:40.776Z,2.55
2023-03-03T01:52:12.315Z,3.90
2023-03-03T01:54:41.595Z,2.70
2023-03-03T01:57:16.540Z,4.20
2023-03-03T01:59:46.392Z,3.83
2023-03-03T02:02:13.075Z,4.03
2023-03-03T02:04:39.517Z,4.20
2023-03-03T02:07:09.934Z,3.35
2023-03-03T02:09:36.297Z,3.47
2023-03-03T02:12:06.759Z,4.15
2023-03-03T02:14:33.155Z,4.68
2023-03-03T02:16:59.860Z,3.45
2023-03-03T02:19:32.324Z,3.05
2023-03-03T02:22:01.665Z,4.35
2023-03-03T02:24:33.450Z,3.67
2023-03-03T02:27:00.140Z,4.13
2023-03-03T02:29:26.557Z,3.45
2023-03-03T02:31:53.204Z,4.07
2023-03-03T02:34:19.726Z,3.58
2023-03-03T02:36:46.190Z,2.80
2023-03-03T02:39:25.143Z,5.25
2023-03-03T02:41:51.935Z,3.47
2023-03-03T02:44:19.770Z,3.33
2023-03-03T02:46:47.410Z,4.18
2023-03-03T02:49:15.832Z,3.42
2023-03-03T02:51:42.322Z,3.53
2023-03-03T02:54:09.664Z,3.22
2023-03-03T02:56:36.312Z,4.35
2023-03-03T02:59:03.116Z,4.85
2023-03-03T03:01:32.098Z,4.25
2023-03-03T03:03:58.927Z,3.90
2023-03-03T03:06:25.491Z,3.25
2023-03-03T03:08:51.928Z,4.53
2023-03-03T03:11:18.465Z,4.45
2023-03-03T03:13:45.062Z,3.78
2023-03-03T03:16:11.554Z,3.55
2023-03-03T03:18:38.035Z,5.45
2023-03-03T03:21:08.754Z,3.80
2023-03-03T03:23:35.548Z,4.47
2023-03-03T03:26:02.229Z,6.30
2023-03-03T03:28:28.760Z,8.85
2023-03-03T03:30:55.597Z,5.25
2023-03-03T03:33:22.267Z,4.90
2023-03-03T03:35:48.860Z,5.68
2023-03-03T03:38:15.397Z,3.90
2023-03-03T03:40:41.960Z,4.90
2023-03-03T03:43:08.492Z,5.78
2023-03-03T03:45:34.902Z,4.68
2023-03-03T03:48:03.658Z,4.28
2023-03-03T03:50:30.714Z,4.43
2023-03-03T03:52:57.130Z,4.60
2023-03-03T03:55:23.575Z,5.32
2023-03-03T03:57:50.337Z,3.97
2023-03-03T04:00:17.482Z,4.05
2023-03-03T04:02:44.061Z,3.78
2023-03-03T04:05:10.738Z,3.55
2023-03-03T04:07:37.329Z,2.72
2023-03-03T04:10:04.182Z,4.25
2023-03-03T04:12:35.928Z,5.15
2023-03-03T04:15:02.407Z,2.42
2023-03-03T04:17:28.801Z,2.83
2023-03-03T04:19:55.300Z,3.25
2023-03-03T04:22:21.720Z,3.25
2023-03-03T04:24:48.699Z,2.97
2023-03-03T04:27:15.557Z,2.28
2023-03-03T04:29:42.394Z,2.78
2023-03-03T04:32:08.797Z,2.55
2023-03-03T04:34:35.323Z,2.58
2023-03-03T04:37:01.956Z,2.72
2023-03-03T04:39:28.668Z,2.97
2023-03-03T04:41:55.111Z,2.83
2023-03-03T04:44:22.408Z,3.03
2023-03-03T04:46:48.861Z,4.07
2023-03-03T04:49:15.399Z,3.42
2023-03-03T04:51:41.783Z,4.65
2023-03-03T04:54:08.179Z,3.50
2023-03-03T04:56:34.608Z,4.47
2023-03-03T04:59:01.072Z,4.72
2023-03-03T05:01:27.728Z,6.03
2023-03-03T05:03:56.166Z,3.80
2023-03-03T05:06:22.656Z,4.22
2023-03-03T05:08:49.107Z,4.05
2023-03-03T05:11:15.512Z,3.35
2023-03-03T05:13:42.008Z,4.30
2023-03-03T05:16:09.036Z,3.38
2023-03-03T05:18:35.466Z,3.72
2023-03-03T05:21:01.871Z,6.32
2023-03-03T05:23:28.350Z,4.03
2023-03-03T05:25:54.786Z,4.18
2023-03-03T05:28:21.288Z,3.80
2023-03-03T05:30:47.807Z,2.30
2023-03-03T05:33:14.844Z,2.45
2023-03-03T05:35:41.351Z,2.50
2023-03-03T05:38:07.966Z,2.90
2023-03-03T05:40:34.376Z,2.50
2023-03-03T05:43:00.934Z,3.47
2023-03-03T05:45:27.482Z,3.00
2023-03-03T05:47:53.915Z,3.42
2023-03-03T05:50:21.236Z,3.10
2023-03-03T05:52:48.353Z,5.25
2023-03-03T05:55:14.795Z,5.78
2023-03-03T05:57:41.238Z,4.68
2023-03-03T06:00:08.580Z,3.97
2023-03-03T06:02:37.882Z,4.30
2023-03-03T06:05:04.484Z,5.55
2023-03-03T06:07:30.898Z,4.45
2023-03-03T06:09:57.281Z,3.80
2023-03-03T06:12:23.684Z,6.57
2023-03-03T06:14:50.125Z,3.05
2023-03-03T06:17:16.558Z,3.08
2023-03-03T06:19:43.003Z,3.13
2023-03-03T06:22:09.619Z,2.72
2023-03-03T06:24:36.132Z,2.83
2023-03-03T06:27:02.561Z,3.38
2023-03-03T06:29:29.096Z,2.58
2023-03-03T06:31:55.903Z,2.00
2023-03-03T06:34:22.375Z,1.77
2023-03-03T06:36:48.830Z,2.08
2023-03-03T06:39:15.295Z,2.72
2023-03-03T06:41:41.723Z,4.05
2023-03-03T06:44:08.164Z,3.42
2023-03-03T06:46:34.622Z,2.58
2023-03-03T06:49:01.139Z,4.93
2023-03-03T06:51:39.741Z,3.45
2023-03-03T06:54:13.945Z,3.55
2023-03-03T06:56:40.552Z,3.05
2023-03-03T06:59:14.778Z,2.67
2023-03-03T07:01:41.913Z,3.05
2023-03-03T07:04:33.409Z,2.80
2023-03-03T07:07:11.115Z,2.42
2023-03-03T07:09:37.550Z,2.50
2023-03-03T07:12:10.714Z,2.17
2023-03-03T07:14:44.724Z,2.53
2023-03-03T07:17:20.311Z,1.95
2023-03-03T07:19:47.367Z,1.88
2023-03-03T07:22:13.766Z,1.48
2023-03-03T07:24:41.233Z,1.65
2023-03-03T07:27:24.157Z,1.48
2023-03-03T07:29:51.865Z,2.17
2023-03-03T07:32:36.847Z,1.80
2023-03-03T07:35:07.785Z,2.00
2023-03-03T07:37:38.878Z,2.00
2023-03-03T07:40:27.622Z,2.17
2023-03-03T07:42:54.144Z,2.00
2023-03-03T07:45:24.472Z,1.88
2023-03-03T07:47:50.846Z,2.33
2023-03-03T07:50:22.344Z,1.90
2023-03-03T07:52:56.937Z,2.05
2023-03-03T07:55:23.441Z,2.00
2023-03-03T07:57:51.140Z,2.05
2023-03-03T08:00:17.583Z,1.88
2023-03-03T08:02:46.820Z,1.55
2023-03-03T08:05:19.517Z,2.00
2023-03-03T08:07:46.147Z,1.80
2023-03-03T08:10:32.135Z,1.88
2023-03-03T08:13:01.192Z,2.25
2023-03-03T08:15:36.676Z,1.77
2023-03-03T08:18:11.841Z,2.00
2023-03-03T08:20:42.442Z,1.75
2023-03-03T08:23:08.833Z,2.13
2023-03-03T08:25:35.323Z,2.13
2023-03-03T08:28:01.972Z,2.10
2023-03-03T08:30:28.424Z,2.08
2023-03-03T08:32:57.820Z,1.83
2023-03-03T08:35:24.312Z,1.83
2023-03-03T08:37:51.273Z,1.90
2023-03-03T08:40:17.709Z,2.00
2023-03-03T08:42:44.136Z,2.38
2023-03-03T08:45:10.537Z,1.83
2023-03-03T08:47:37.023Z,2.65
2023-03-03T08:50:03.506Z,1.83
2023-03-03T08:52:29.921Z,2.58
2023-03-03T08:54:56.479Z,1.92
2023-03-03T08:57:22.913Z,1.70
2023-03-03T08:59:49.351Z,1.88
2023-03-03T09:02:17.132Z,1.73
2023-03-03T09:04:43.630Z,1.70
2023-03-03T09:07:10.839Z,1.73
2023-03-03T09:09:40.164Z,2.90
2023-03-03T09:12:13.344Z,2.00
2023-03-03T09:14:39.750Z,1.70
2023-03-03T09:17:18.778Z,1.70
2023-03-03T09:19:45.435Z,1.63
2023-03-03T09:22:18.896Z,1.77
2023-03-03T09:24:47.227Z,1.85
2023-03-03T09:27:20.179Z,1.60
2023-03-03T09:29:46.579Z,2.17
2023-03-03T09:32:27.247Z,2.53
2023-03-03T09:34:53.695Z,2.28
2023-03-03T09:37:24.427Z,1.70
2023-03-03T09:39:52.130Z,1.63
2023-03-03T09:42:36.912Z,1.55
2023-03-03T09:45:12.993Z,1.45
2023-03-03T09:47:47.289Z,1.45
2023-03-03T09:50:26.353Z,1.63
2023-03-03T09:53:01.589Z,1.60
2023-03-03T09:55:35.929Z,1.20
2023-03-03T09:58:18.614Z,1.50
2023-03-03T10:00:45.039Z,1.33
2023-03-03T10:03:14.519Z,1.70
2023-03-03T10:05:59.233Z,1.35
2023-03-03T10:08:31.227Z,1.50
2023-03-03T10:10:58.059Z,1.30
2023-03-03T10:13:42.149Z,1.58
2023-03-03T10:16:20.522Z,1.50
2023-03-03T10:18:52.113Z,1.45
2023-03-03T10:21:37.385Z,1.65
2023-03-03T10:24:09.715Z,1.45
2023-03-03T10:27:01.273Z,1.48
2023-03-03T10:29:44.742Z,1.60
2023-03-03T10:32:23.607Z,1.58
2023-03-03T10:34:53.227Z,1.75
2023-03-03T10:37:38.586Z,1.60
2023-03-03T10:40:19.400Z,1.30
2023-03-03T10:42:54.994Z,1.15
2023-03-03T10:45:40.147Z,1.42
2023-03-03T10:48:18.498Z,1.60
2023-03-03T10:50:57.943Z,1.40
2023-03-03T10:53:59.842Z,2.25
2023-03-03T10:56:50.433Z,1.85
2023-03-03T10:59:36.906Z,1.45
2023-03-03T11:02:23.725Z,2.00
2023-03-03T11:05:10.372Z,1.75
2023-03-03T11:07:46.335Z,1.17
2023-03-03T11:10:24.962Z,1.42
2023-03-03T11:13:15.396Z,2.58
2023-03-03T11:15:51.060Z,1.55
2023-03-03T11:18:25.747Z,1.27
2023-03-03T11:20:55.256Z,1.70
2023-03-03T11:23:31.254Z,1.60
2023-03-03T11:26:17.907Z,2.35
2023-03-03T11:29:02.640Z,1.60
2023-03-03T11:31:37.386Z,1.98
2023-03-03T11:34:06.693Z,1.48
2023-03-03T11:36:51.801Z,1.52
2023-03-03T11:39:20.566Z,1.48
2023-03-03T11:42:05.428Z,1.63
2023-03-03T11:44:45.481Z,1.45
2023-03-03T11:47:18.426Z,1.33
2023-03-03T11:50:04.781Z,5.28
2023-03-03T11:52:43.633Z,1.10
2023-03-03T11:55:12.971Z,1.10
2023-03-03T11:57:45.711Z,1.10
2023-03-03T12:00:18.209Z,1.20
2023-03-03T12:02:53.836Z,1.55
2023-03-03T12:05:38.902Z,0.95
2023-03-03T12:08:23.913Z,1.27
2023-03-03T12:10:56.512Z,1.35
2023-03-03T12:13:32.243Z,1.50
2023-03-03T12:16:01.762Z,1.80
2023-03-03T12:18:33.974Z,1.95
2023-03-03T12:21:22.414Z,1.50
2023-03-03T12:24:08.008Z,1.38
2023-03-03T12:26:49.466Z,1.52
2023-03-03T12:29:39.776Z,1.83
2023-03-03T12:32:08.913Z,1.60
2023-03-03T12:34:41.353Z,1.38
2023-03-03T12:37:07.791Z,1.35
2023-03-03T12:39:40.918Z,1.38
2023-03-03T12:42:07.659Z,1.83
2023-03-03T12:44:44.473Z,1.42
2023-03-03T12:47:25.073Z,1.20
2023-03-03T12:50:07.638Z,2.00
2023-03-03T12:52:46.538Z,1.45
2023-03-03T12:55:31.596Z,1.40
2023-03-03T12:58:05.990Z,1.10
2023-03-03T13:00:49.262Z,0.95
2023-03-03T13:03:15.716Z,1.00
2023-03-03T13:05:51.420Z,0.95
2023-03-03T13:08:31.150Z,0.80
2023-03-03T13:11:03.806Z,1.30
2023-03-03T13:13:49.752Z,1.50
2023-03-03T13:16:26.345Z,1.17
2023-03-03T13:18:55.547Z,1.23
2023-03-03T13:21:36.704Z,1.50
2023-03-03T13:24:12.156Z,1.23
2023-03-03T13:26:44.972Z,1.30
2023-03-03T13:29:16.274Z,0.90
2023-03-03T13:31:52.031Z,1.10
2023-03-03T13:34:23.164Z,1.15
2023-03-03T13:37:09.803Z,1.00
2023-03-03T13:39:39.762Z,0.82
2023-03-03T13:42:19.642Z,0.70
2023-03-03T13:44:47.081Z,1.40
2023-03-03T13:47:37.070Z,1.50
2023-03-03T13:50:03.691Z,1.33
2023-03-03T13:52:32.739Z,1.20
2023-03-03T13:55:08.718Z,1.67
2023-03-03T13:57:38.463Z,1.00
2023-03-03T14:00:08.083Z,0.70
2023-03-03T14:02:53.787Z,0.80
2023-03-03T14:05:20.172Z,0.85
2023-03-03T14:08:15.909Z,0.80
2023-03-03T14:10:54.368Z,1.20
2023-03-03T14:13:43.813Z,2.20
2023-03-03T14:16:23.304Z,2.15
2023-03-03T14:19:08.526Z,2.05
2023-03-03T14:21:43.525Z,0.55
2023-03-03T14:24:13.093Z,0.80
2023-03-03T14:26:46.873Z,1.45
2023-03-03T14:29:19.064Z,0.50
2023-03-03T14:31:45.661Z,0.63
2023-03-03T14:34:15.039Z,1.98
2023-03-03T14:36:42.690Z,1.40
2023-03-03T14:39:28.035Z,0.80
2023-03-03T14:41:57.362Z,0.70
2023-03-03T14:44:31.229Z,0.70
2023-03-03T14:47:03.057Z,1.10
2023-03-03T14:49:31.913Z,0.80
2023-03-03T14:52:03.536Z,0.70
2023-03-03T14:54:37.175Z,1.65
2023-03-03T14:57:07.314Z,1.05
2023-03-03T14:59:33.793Z,1.05
2023-03-03T15:02:08.975Z,1.20
2023-03-03T15:04:35.426Z,1.52
2023-03-03T15:07:14.302Z,0.75
2023-03-03T15:09:43.419Z,1.77
2023-03-03T15:12:28.787Z,0.60
2023-03-03T15:15:04.448Z,0.68
2023-03-03T15:17:37.975Z,0.80
2023-03-03T15:20:13.838Z,1.00
2023-03-03T15:22:49.524Z,0.90
2023-03-03T15:25:16.149Z,0.68
2023-03-03T15:27:47.586Z,1.17
2023-03-03T15:32:40.560Z,1.10
2023-03-03T15:35:27.635Z,1.50
2023-03-03T15:37:59.765Z,1.40
2023-03-03T15:40:28.016Z,1.33
2023-03-03T15:43:00.413Z,2.50
2023-03-03T15:45:33.821Z,1.48
2023-03-03T15:48:23.622Z,1.17
2023-03-03T15:51:08.840Z,0.85
2023-03-03T15:53:43.580Z,0.60
2023-03-03T15:56:26.220Z,0.70
2023-03-03T15:58:55.621Z,1.10
2023-03-03T16:01:27.453Z,1.20
2023-03-03T16:04:12.687Z,0.80
2023-03-03T16:06:58.336Z,1.05
2023-03-03T16:09:30.736Z,1.27
2023-03-03T16:12:09.616Z,0.95
2023-03-03T16:14:36.004Z,0.77
2023-03-03T16:17:20.464Z,0.90
2023-03-03T16:19:56.054Z,1.90
2023-03-03T16:22:34.782Z,1.80
2023-03-03T16:25:04.041Z,1.60
2023-03-03T16:27:30.561Z,1.00
2023-03-03T16:29:59.752Z,1.00
2023-03-03T16:32:36.333Z,1.40
2023-03-03T16:35:24.464Z,1.27
2023-03-03T16:38:02.761Z,1.80
2023-03-03T16:40:52.783Z,1.63
2023-03-03T16:43:24.967Z,2.08
2023-03-03T16:45:56.990Z,1.20
2023-03-03T16:48:35.341Z,0.82
2023-03-03T16:51:11.026Z,0.80
2023-03-03T16:54:03.912Z,1.50
2023-03-03T16:56:30.314Z,0.80
2023-03-03T16:59:08.887Z,0.98
2023-03-03T17:01:35.273Z,0.98
2023-03-03T17:04:03.128Z,0.63
2023-03-03T17:06:33.687Z,1.20
2023-03-03T17:09:02.904Z,0.77
2023-03-03T17:11:48.055Z,0.82
2023-03-03T17:14:14.480Z,0.98
2023-03-03T17:16:56.191Z,1.05
2023-03-03T17:19:22.692Z,1.42
2023-03-03T17:21:58.882Z,1.77
2023-03-03T17:24:31.084Z,1.13
2023-03-03T17:27:04.091Z,1.17
2023-03-03T17:29:33.613Z,0.90
2023-03-03T17:32:08.485Z,1.20
2023-03-03T17:34:41.247Z,1.60
2023-03-03T17:37:20.327Z,1.50
2023-03-03T17:40:03.673Z,1.27
2023-03-03T17:42:39.953Z,1.48
2023-03-03T17:45:08.325Z,1.10
2023-03-03T17:47:43.836Z,1.70
2023-03-03T17:50:25.563Z,1.10
2023-03-03T17:53:10.625Z,1.35
2023-03-03T17:55:43.117Z,0.90
2023-03-03T17:58:12.627Z,0.82
2023-03-03T18:00:45.016Z,1.05
2023-03-03T18:03:31.744Z,0.85
2023-03-03T18:06:04.234Z,0.80
2023-03-03T18:08:42.913Z,0.88
2023-03-03T18:11:20.269Z,1.48
2023-03-03T18:14:02.076Z,1.05
2023-03-03T18:16:40.646Z,1.15
2023-03-03T18:19:25.794Z,0.90
2023-03-03T18:21:58.718Z,1.40
2023-03-03T18:24:27.486Z,1.67
2023-03-03T18:26:56.303Z,0.32
2023-03-03T18:29:24.606Z,1.05
2023-03-03T18:31:54.132Z,0.70
2023-03-03T18:34:20.540Z,0.80
2023-03-03T18:36:54.551Z,0.80
2023-03-03T18:39:40.968Z,0.73
2023-03-03T18:42:10.182Z,1.20
2023-03-03T18:44:36.636Z,1.25
2023-03-03T18:47:06.048Z,0.70
2023-03-03T18:49:49.429Z,0.68
2023-03-03T18:52:43.138Z,0.55
2023-03-03T18:55:09.531Z,1.13
2023-03-03T18:57:39.287Z,0.80
2023-03-03T19:00:21.596Z,0.60
2023-03-03T19:02:52.509Z,0.60
2023-03-03T19:07:51.318Z,0.60
2023-03-03T19:10:21.396Z,1.10
2023-03-03T19:12:51.797Z,0.68
2023-03-03T19:15:31.048Z,0.57
2023-03-03T19:18:01.314Z,0.50
2023-03-03T19:20:37.803Z,0.75
2023-03-03T19:23:12.320Z,0.50
2023-03-03T19:25:38.853Z,0.50
2023-03-03T19:28:23.841Z,0.73
2023-03-03T19:30:58.088Z,0.70
2023-03-03T19:33:30.954Z,1.20
2023-03-03T19:36:16.177Z,0.60
2023-03-03T19:38:42.609Z,0.95
2023-03-03T19:41:15.004Z,0.80
2023-03-03T19:43:41.358Z,0.60
2023-03-03T19:46:13.839Z,0.80
2023-03-03T19:48:44.457Z,0.50
2023-03-03T19:51:29.615Z,0.98
2023-03-03T19:54:28.467Z,0.47
2023-03-03T19:56:56.255Z,0.70
2023-03-03T19:59:28.738Z,0.45
2023-03-03T20:02:13.553Z,0.60
2023-03-03T20:04:45.873Z,0.60
2023-03-03T20:07:24.121Z,0.57
2023-03-03T20:09:53.287Z,0.38
2023-03-03T20:12:28.883Z,0.60
2023-03-03T20:15:10.239Z,0.65
2023-03-03T20:17:54.860Z,0.70
2023-03-03T20:20:30.623Z,0.82
2023-03-03T20:23:11.892Z,0.55
2023-03-03T20:25:44.596Z,0.57
2023-03-03T20:28:22.991Z,0.55
2023-03-03T20:30:52.482Z,0.68
2023-03-03T20:33:25.929Z,0.70
2023-03-03T20:36:18.608Z,0.55
2023-03-03T20:39:04.199Z,0.47
2023-03-03T20:41:50.902Z,0.70
2023-03-03T20:44:36.272Z,0.60
2023-03-03T20:47:05.741Z,0.93
2023-03-03T20:49:47.507Z,1.20
2023-03-03T20:52:25.834Z,0.57
2023-03-03T20:55:01.126Z,0.68
2023-03-03T20:57:47.134Z,0.70
2023-03-03T21:00:18.392Z,0.75
2023-03-03T21:03:08.130Z,0.47
2023-03-03T21:05:34.742Z,0.60
2023-03-03T21:08:02.428Z,0.73
2023-03-03T21:10:33.876Z,2.47
2023-03-03T21:13:20.242Z,0.68
2023-03-03T21:16:03.145Z,0.60
2023-03-03T21:18:29.821Z,0.50
2023-03-03T21:20:56.260Z,0.70
2023-03-03T21:23:23.061Z,0.70
2023-03-03T21:25:49.628Z,0.90
2023-03-03T21:28:28.313Z,1.02
2023-03-03T21:31:07.197Z,0.80
2023-03-03T21:33:39.754Z,1.00
2023-03-03T21:36:09.106Z,0.70
2023-03-03T21:38:36.300Z,0.47
2023-03-03T21:41:03.313Z,0.60
2023-03-03T21:43:40.247Z,0.60
2023-03-03T21:46:07.134Z,2.08
2023-03-03T21:48:33.641Z,1.90
2023-03-03T21:51:00.122Z,0.82
2023-03-03T21:53:27.278Z,1.20
2023-03-03T21:55:53.767Z,1.45
2023-03-03T21:58:20.185Z,2.78
2023-03-03T22:00:46.751Z,1.40
2023-03-03T22:03:15.240Z,1.88
2023-03-03T22:05:41.747Z,0.88
2023-03-03T22:08:08.150Z,1.08
2023-03-03T22:10:34.759Z,7.88
2023-03-03T22:13:01.138Z,3.67
2023-03-03T22:15:30.408Z,1.10
2023-03-03T22:17:56.955Z,0.80
2023-03-03T22:20:23.336Z,1.30
2023-03-03T22:22:49.830Z,1.13
2023-03-03T22:25:16.334Z,0.82
2023-03-03T22:27:42.813Z,1.42
2023-03-03T22:30:10.107Z,2.53
2023-03-03T22:32:36.526Z,3.45
2023-03-03T22:35:02.987Z,6.18
2023-03-03T22:37:29.373Z,5.95
2023-03-03T22:39:57.798Z,10.10
2023-03-03T22:42:25.050Z,13.20
2023-03-03T22:44:51.460Z,11.60
2023-03-03T22:47:17.950Z,6.75
2023-03-03T22:49:44.367Z,5.05
2023-03-03T22:52:10.787Z,3.53
2023-03-03T22:54:37.367Z,1.80
2023-03-03T22:57:03.776Z,3.67
2023-03-03T22:59:30.368Z,4.20
2023-03-03T23:01:56.831Z,4.72
2023-03-03T23:04:23.299Z,1.30
2023-03-03T23:06:50.166Z,2.40
2023-03-03T23:09:16.582Z,4.15
2023-03-03T23:11:43.045Z,4.75
2023-03-03T23:14:09.451Z,8.10
2023-03-03T23:16:35.861Z,3.67
2023-03-03T23:19:05.417Z,2.00
2023-03-03T23:21:31.919Z,3.10
2023-03-03T23:23:58.334Z,1.20
2023-03-03T23:26:24.933Z,1.50
2023-03-03T23:28:51.385Z,1.40
2023-03-03T23:31:17.941Z,1.23
2023-03-03T23:33:44.420Z,1.15
2023-03-03T23:36:13.236Z,0.90
2023-03-03T23:38:41.366Z,0.90
2023-03-03T23:41:09.373Z,5.50
2023-03-03T23:43:35.855Z,1.50
2023-03-03T23:46:02.271Z,1.30
2023-03-03T23:48:28.662Z,1.05
2023-03-03T23:50:55.132Z,1.42
2023-03-03T23:53:23.446Z,1.88
2023-03-03T23:55:49.830Z,0.95
2023-03-03T23:58:16.209Z,0.70
